الصفحة الرئيسية
METAR-TAF:

METAR-TAF

مطار :

مطار توزر نفطة الدولي

توزر, تونس

دائرة عرض: 33-55N, خط طول: 008-06E, ارتفاع: 87 متر

مراقبة الطقس الحالي

تاريخ ووقت الإصدار 52 دقيقة قبل الساعة 18:00UTC
ريح 10 عقدة من الشرق/الجنوب الشرقي
درجة الحرارة 26°درجة مئوية
الرطوبة 18%
ضغط 1008 hPa

METAR: DTTZ 011800Z AUTO 11010KT NCD 26/M00 Q1008

زمن: 19:52 (18:52 UTC)

توقعات

تاريخ ووقت الإصدار 7ساعات و 52 دقيقة قبل الساعة 11:00UTC
التوقعات صالحة من01 الساعة 12 UTC إلى 02 الساعة 12 UTC
ريح 7 عقدة من الشرق/الشمال الشرقي
الرؤية 10 كم أو أكثر
غيوم متفرقة على ارتفاع 3000 قدم
أصبح
من 01 الساعة 12 UTC إلى 01 الساعة 14 UTC
ريح 11 عقدة من الشرق/الجنوب الشرقي
أصبح
من 01 الساعة 18 UTC إلى 01 الساعة 20 UTC
ريح 20 عقدة من الشرق تتزايد حتى 30 عقدة

TAF: DTTZ 011100Z 0112/0212 07007KT 9999 SCT030 BECMG 0112/0114 12011KT BECMG 0118/0120 09020G30KT

أرصاد الطقس والتوقعات من أكثر من 4000 مطار (تقارير الطقس للمطار METAR والتنبؤ بالطقس بالمطارTAF).

المحطات المتاحة هي النقط الصفراء والحمراء على الخريطة.

حرك المؤشر فوق النقطة لمعرفة اسم المحطة.

ثم انقر لمعرفة أرصاد وتوقعات الطقس.

لتغيير الخارطة: اضغط على الأزرار الخضراء مع رمز الصليب الأسود للتكبير. على الزر الأخضر مع شرطة للتصغير، أو على الأسهم الخضراء للخرائط المجاورة.


METAR-TAF: